createdAt,value
2017-12-31T00:00:13.766Z,1.20
2017-12-31T00:02:41.328Z,2.27
2017-12-31T00:05:08.880Z,1.30
2017-12-31T00:07:36.443Z,4.00
2017-12-31T00:10:03.996Z,2.27
2017-12-31T00:12:31.566Z,3.00
2017-12-31T00:14:59.146Z,2.50
2017-12-31T00:17:26.687Z,6.70
2017-12-31T00:19:54.216Z,4.20
2017-12-31T00:22:21.790Z,4.13
2017-12-31T00:24:49.339Z,1.63
2017-12-31T00:27:16.872Z,3.50
2017-12-31T00:29:44.451Z,1.30
2017-12-31T00:32:12.775Z,2.07
2017-12-31T00:34:40.321Z,2.30
2017-12-31T00:37:07.902Z,1.33
2017-12-31T00:39:35.447Z,1.20
2017-12-31T00:42:03.360Z,2.47
2017-12-31T00:44:31.677Z,0.83
2017-12-31T00:46:59.213Z,1.07
2017-12-31T00:49:27.547Z,0.70
2017-12-31T00:51:55.088Z,0.60
2017-12-31T00:54:22.646Z,0.50
2017-12-31T00:56:50.222Z,0.97
2017-12-31T00:59:17.756Z,0.70
2017-12-31T01:01:45.293Z,0.70
2017-12-31T01:04:12.866Z,0.70
2017-12-31T01:06:40.396Z,1.30
2017-12-31T01:09:07.948Z,0.90
2017-12-31T01:11:35.502Z,2.20
2017-12-31T01:14:03.800Z,2.00
2017-12-31T01:16:31.339Z,1.30
2017-12-31T01:18:58.909Z,1.00
2017-12-31T01:21:26.480Z,1.53
2017-12-31T01:23:54.802Z,1.53
2017-12-31T01:26:22.361Z,2.60
2017-12-31T01:28:49.914Z,4.70
2017-12-31T01:31:17.466Z,3.57
2017-12-31T01:33:45.034Z,0.77
2017-12-31T01:36:12.559Z,1.57
2017-12-31T01:38:40.102Z,2.47
2017-12-31T01:41:07.690Z,0.70
2017-12-31T01:43:35.244Z,2.23
2017-12-31T01:46:02.800Z,1.40
2017-12-31T01:48:31.116Z,2.33
2017-12-31T01:50:58.656Z,1.93
2017-12-31T01:53:26.200Z,1.33
2017-12-31T01:55:54.509Z,1.70
2017-12-31T01:58:22.040Z,1.20
2017-12-31T02:00:50.360Z,0.60
2017-12-31T02:03:17.899Z,2.73
2017-12-31T02:05:45.428Z,2.47
2017-12-31T02:08:12.979Z,5.70
2017-12-31T02:10:40.498Z,0.60
2017-12-31T02:13:08.056Z,1.90
2017-12-31T02:15:35.608Z,1.43
2017-12-31T02:18:03.171Z,1.47
2017-12-31T02:20:30.717Z,2.53
2017-12-31T02:22:58.288Z,1.63
2017-12-31T02:25:25.821Z,1.70
2017-12-31T02:27:53.436Z,3.10
2017-12-31T02:30:20.988Z,1.83
2017-12-31T02:32:48.534Z,2.00
2017-12-31T02:35:16.060Z,1.37
2017-12-31T02:37:43.622Z,1.53
2017-12-31T02:40:11.924Z,0.70
2017-12-31T02:42:39.495Z,1.23
2017-12-31T02:45:07.061Z,2.40
2017-12-31T02:47:34.625Z,3.20
2017-12-31T02:50:02.201Z,1.93
2017-12-31T02:52:29.758Z,1.03
2017-12-31T02:54:57.356Z,1.03
2017-12-31T02:57:24.890Z,0.90
2017-12-31T02:59:52.439Z,1.77
2017-12-31T03:02:20.189Z,0.60
2017-12-31T03:04:47.732Z,0.80
2017-12-31T03:07:15.276Z,1.10
2017-12-31T03:09:43.606Z,3.27
2017-12-31T03:12:11.137Z,3.37
2017-12-31T03:14:38.681Z,0.80
2017-12-31T03:17:06.246Z,3.90
2017-12-31T03:19:33.772Z,2.73
2017-12-31T03:22:01.307Z,1.50
2017-12-31T03:24:28.869Z,1.20
2017-12-31T03:26:56.422Z,1.80
2017-12-31T03:29:23.959Z,0.90
2017-12-31T03:31:51.517Z,3.80
2017-12-31T03:34:19.083Z,2.63
2017-12-31T03:36:46.667Z,1.30
2017-12-31T03:39:14.267Z,1.73
2017-12-31T03:41:42.590Z,4.63
2017-12-31T03:44:10.172Z,3.30
2017-12-31T03:46:37.734Z,5.13
2017-12-31T03:49:05.278Z,1.60
2017-12-31T03:51:32.866Z,2.23
2017-12-31T03:54:00.386Z,5.40
2017-12-31T03:56:27.942Z,2.63
2017-12-31T03:58:55.524Z,4.60
2017-12-31T04:01:23.079Z,2.60
2017-12-31T04:03:50.615Z,4.20
2017-12-31T04:06:18.186Z,2.07
2017-12-31T04:08:45.743Z,3.67
2017-12-31T04:11:13.298Z,4.13
2017-12-31T04:13:40.854Z,6.33
2017-12-31T04:16:08.459Z,6.73
2017-12-31T04:18:36.000Z,3.07
2017-12-31T04:21:03.579Z,3.87
2017-12-31T04:23:31.113Z,5.40
2017-12-31T04:25:58.934Z,4.90
2017-12-31T04:28:27.256Z,5.87
2017-12-31T04:30:54.806Z,3.93
2017-12-31T04:33:22.390Z,1.83
2017-12-31T04:35:49.918Z,7.83
2017-12-31T04:38:17.473Z,4.40
2017-12-31T04:40:45.813Z,4.93
2017-12-31T04:43:13.361Z,5.97
2017-12-31T04:45:40.887Z,1.83
2017-12-31T04:48:08.460Z,3.53
2017-12-31T04:50:35.988Z,5.37
2017-12-31T04:53:03.563Z,10.57
2017-12-31T04:55:31.120Z,5.47
2017-12-31T04:57:58.710Z,5.50
2017-12-31T05:00:26.268Z,2.60
2017-12-31T05:02:53.794Z,2.30
2017-12-31T05:05:21.350Z,4.37
2017-12-31T05:07:49.687Z,1.57
2017-12-31T05:10:18.013Z,4.13
2017-12-31T05:12:45.556Z,3.17
2017-12-31T05:15:13.904Z,1.70
2017-12-31T05:17:41.508Z,2.00
2017-12-31T05:20:09.071Z,1.80
2017-12-31T05:22:37.369Z,4.10
2017-12-31T05:25:04.947Z,3.73
2017-12-31T05:27:32.494Z,3.27
2017-12-31T05:30:00.078Z,4.53
2017-12-31T05:32:27.619Z,15.77
2017-12-31T05:34:55.152Z,16.50
2017-12-31T05:37:22.721Z,2.43
2017-12-31T05:39:50.263Z,2.30
2017-12-31T05:42:18.561Z,3.40
2017-12-31T05:44:46.147Z,5.30
2017-12-31T05:47:13.690Z,3.77
2017-12-31T05:49:41.210Z,4.13
2017-12-31T05:52:08.783Z,3.40
2017-12-31T05:54:37.106Z,3.53
2017-12-31T05:57:04.706Z,3.73
2017-12-31T05:59:32.236Z,2.10
2017-12-31T06:01:59.783Z,6.40
2017-12-31T06:04:27.364Z,2.50
2017-12-31T06:06:54.930Z,2.83
2017-12-31T06:09:22.491Z,2.30
2017-12-31T06:11:50.063Z,1.63
2017-12-31T06:14:17.621Z,7.13
2017-12-31T06:16:45.177Z,2.07
2017-12-31T06:19:12.742Z,2.20
2017-12-31T06:21:41.048Z,4.30
2017-12-31T06:24:08.623Z,6.40
2017-12-31T06:26:36.178Z,2.53
2017-12-31T06:29:03.732Z,6.00
2017-12-31T06:31:31.315Z,3.90
2017-12-31T06:33:58.861Z,3.73
2017-12-31T06:36:26.413Z,1.50
2017-12-31T06:38:54.011Z,4.33
2017-12-31T06:41:21.548Z,2.70
2017-12-31T06:43:49.103Z,1.60
2017-12-31T06:46:16.698Z,4.37
2017-12-31T06:48:44.243Z,1.20
2017-12-31T06:51:11.784Z,1.57
2017-12-31T06:53:39.334Z,3.13
2017-12-31T06:56:06.885Z,2.83
2017-12-31T06:58:35.185Z,3.40
2017-12-31T07:01:02.778Z,5.60
2017-12-31T07:03:30.350Z,3.43
2017-12-31T07:05:57.892Z,1.23
2017-12-31T07:08:25.439Z,4.50
2017-12-31T07:10:53.003Z,9.20
2017-12-31T07:13:20.531Z,1.50
2017-12-31T07:15:48.079Z,3.00
2017-12-31T07:18:16.408Z,2.80
2017-12-31T07:20:43.945Z,4.70
2017-12-31T07:23:11.500Z,2.63
2017-12-31T07:25:39.056Z,1.70
2017-12-31T07:28:06.616Z,2.20
2017-12-31T07:30:34.207Z,4.70
2017-12-31T07:33:01.780Z,3.80
2017-12-31T07:35:29.330Z,2.30
2017-12-31T07:37:56.902Z,4.53
2017-12-31T07:40:24.443Z,3.57
2017-12-31T07:42:51.995Z,5.90
2017-12-31T07:45:19.573Z,8.93
2017-12-31T07:47:47.103Z,4.50
2017-12-31T07:50:14.636Z,2.00
2017-12-31T07:52:42.240Z,2.97
2017-12-31T07:55:10.469Z,3.07
2017-12-31T07:57:38.027Z,1.43
2017-12-31T08:00:05.564Z,2.93
2017-12-31T08:02:33.123Z,2.63
2017-12-31T08:05:00.681Z,4.07
2017-12-31T08:07:28.229Z,2.13
2017-12-31T08:09:55.807Z,1.53
2017-12-31T08:12:23.363Z,3.10
2017-12-31T08:14:50.892Z,3.63
2017-12-31T08:17:18.438Z,1.30
2017-12-31T08:19:46.014Z,2.47
2017-12-31T08:22:13.573Z,1.27
2017-12-31T08:24:41.130Z,2.20
2017-12-31T08:27:08.718Z,1.50
2017-12-31T08:29:36.285Z,1.70
2017-12-31T08:32:03.827Z,2.73
2017-12-31T08:34:31.410Z,2.73
2017-12-31T08:36:58.943Z,3.80
2017-12-31T08:39:26.491Z,2.20
2017-12-31T08:41:54.071Z,2.20
2017-12-31T08:44:21.625Z,2.33
2017-12-31T08:46:49.164Z,2.50
2017-12-31T08:49:16.735Z,1.43
2017-12-31T08:51:44.290Z,1.23
2017-12-31T08:54:11.887Z,6.77
2017-12-31T08:56:39.419Z,2.00
2017-12-31T08:59:06.986Z,1.10
2017-12-31T09:01:34.544Z,3.67
2017-12-31T09:04:02.101Z,3.37
2017-12-31T09:06:29.646Z,1.57
2017-12-31T09:08:57.224Z,2.33
2017-12-31T09:11:24.768Z,1.20
2017-12-31T09:13:52.301Z,3.03
2017-12-31T09:16:20.647Z,1.67
2017-12-31T09:18:48.188Z,1.43
2017-12-31T09:21:15.748Z,5.57
2017-12-31T09:23:43.297Z,2.20
2017-12-31T09:26:11.075Z,1.87
2017-12-31T09:28:38.654Z,3.57
2017-12-31T09:31:06.191Z,4.33
2017-12-31T09:33:33.728Z,1.23
2017-12-31T09:36:01.280Z,7.33
2017-12-31T09:38:29.570Z,1.47
2017-12-31T09:40:57.122Z,3.23
2017-12-31T09:43:25.446Z,4.63
2017-12-31T09:45:53.000Z,3.50
2017-12-31T09:48:20.527Z,3.03
2017-12-31T09:50:48.111Z,2.03
2017-12-31T09:53:15.647Z,1.77
2017-12-31T09:55:43.967Z,2.17
2017-12-31T09:58:11.555Z,2.23
2017-12-31T10:00:39.127Z,3.40
2017-12-31T10:03:06.671Z,2.10
2017-12-31T10:05:34.250Z,2.10
2017-12-31T10:08:02.575Z,2.27
2017-12-31T10:10:30.129Z,2.17
2017-12-31T10:12:57.680Z,2.87
2017-12-31T10:15:25.226Z,1.93
2017-12-31T10:17:52.808Z,2.40
2017-12-31T10:20:20.369Z,6.10
2017-12-31T10:22:47.924Z,3.33
2017-12-31T10:25:15.500Z,2.90
2017-12-31T10:27:43.047Z,4.03
2017-12-31T10:30:10.598Z,2.97
2017-12-31T10:32:38.170Z,3.90
2017-12-31T10:35:05.716Z,1.50
2017-12-31T10:37:33.288Z,3.10
2017-12-31T10:40:00.824Z,4.07
2017-12-31T10:42:29.119Z,4.37
2017-12-31T10:44:56.680Z,2.30
2017-12-31T10:47:24.226Z,3.80
2017-12-31T10:49:52.545Z,2.10
2017-12-31T10:52:20.146Z,1.20
2017-12-31T10:54:48.452Z,2.43
2017-12-31T10:57:16.008Z,3.30
2017-12-31T10:59:43.580Z,5.10
2017-12-31T11:02:11.135Z,3.17
2017-12-31T11:04:38.694Z,4.23
2017-12-31T11:07:06.256Z,3.80
2017-12-31T11:09:33.806Z,4.87
2017-12-31T11:12:01.410Z,3.73
2017-12-31T11:14:28.943Z,4.57
2017-12-31T11:16:56.471Z,2.00
2017-12-31T11:19:24.811Z,5.00
2017-12-31T11:21:52.362Z,3.97
2017-12-31T11:24:19.905Z,3.93
2017-12-31T11:26:47.478Z,1.93
2017-12-31T11:29:15.008Z,2.80
2017-12-31T11:31:42.564Z,1.13
2017-12-31T11:34:10.151Z,3.47
2017-12-31T11:36:37.688Z,2.10
2017-12-31T11:39:05.279Z,2.60
2017-12-31T11:41:32.817Z,2.20
2017-12-31T11:44:00.375Z,5.23
2017-12-31T11:46:27.935Z,2.53
2017-12-31T11:48:55.482Z,5.30
2017-12-31T11:51:23.776Z,2.67
2017-12-31T11:53:51.358Z,3.63
2017-12-31T11:56:18.891Z,2.50
2017-12-31T11:58:46.442Z,4.53
2017-12-31T12:01:14.023Z,3.13
2017-12-31T12:03:41.589Z,1.47
2017-12-31T12:06:09.147Z,2.10
2017-12-31T12:08:36.715Z,1.77
2017-12-31T12:11:04.248Z,3.57
2017-12-31T12:13:31.802Z,2.33
2017-12-31T12:16:00.147Z,2.23
2017-12-31T12:18:27.698Z,2.30
2017-12-31T12:20:55.227Z,1.73
2017-12-31T12:23:22.802Z,1.77
2017-12-31T12:25:50.348Z,1.67
2017-12-31T12:28:17.906Z,5.47
2017-12-31T12:30:45.484Z,2.83
2017-12-31T12:33:13.034Z,2.27
2017-12-31T12:35:40.590Z,2.40
2017-12-31T12:38:08.191Z,1.93
2017-12-31T12:40:35.748Z,2.70
2017-12-31T12:43:03.301Z,2.50
2017-12-31T12:45:30.863Z,3.83
2017-12-31T12:47:58.414Z,1.33
2017-12-31T12:50:25.967Z,7.60
2017-12-31T12:52:53.528Z,1.37
2017-12-31T12:55:21.086Z,1.87
2017-12-31T12:57:48.621Z,2.90
2017-12-31T13:00:16.175Z,1.30
2017-12-31T13:02:43.701Z,1.53
2017-12-31T13:05:12.066Z,1.80
2017-12-31T13:07:39.604Z,3.40
2017-12-31T13:10:07.161Z,2.90
2017-12-31T13:12:34.717Z,4.67
2017-12-31T13:15:02.275Z,2.97
2017-12-31T13:17:29.806Z,9.13
2017-12-31T13:19:58.127Z,2.87
2017-12-31T13:22:25.657Z,1.10
2017-12-31T13:24:53.219Z,2.63
2017-12-31T13:27:20.766Z,3.43
2017-12-31T13:29:49.078Z,2.57
2017-12-31T13:32:16.631Z,2.97
2017-12-31T13:34:44.183Z,1.77
2017-12-31T13:37:11.766Z,2.07
2017-12-31T13:39:39.393Z,2.30
2017-12-31T13:42:06.935Z,1.60
2017-12-31T13:44:35.262Z,1.50
2017-12-31T13:47:02.804Z,5.53
2017-12-31T13:49:31.167Z,2.20
2017-12-31T13:51:58.789Z,1.33
2017-12-31T13:54:26.320Z,1.50
2017-12-31T13:56:53.848Z,4.80
2017-12-31T13:59:22.230Z,2.97
2017-12-31T14:01:49.785Z,1.73
2017-12-31T14:04:17.339Z,6.13
2017-12-31T14:06:45.685Z,2.33
2017-12-31T14:09:13.224Z,1.83
2017-12-31T14:11:40.803Z,5.80
2017-12-31T14:14:08.357Z,1.90
2017-12-31T14:16:35.942Z,1.60
2017-12-31T14:19:04.269Z,4.23
2017-12-31T14:21:31.838Z,2.13
2017-12-31T14:23:59.387Z,1.90
2017-12-31T14:26:26.944Z,3.37
2017-12-31T14:28:54.499Z,2.73
2017-12-31T14:31:22.056Z,6.60
2017-12-31T14:33:49.613Z,1.57
2017-12-31T14:36:17.929Z,10.67
2017-12-31T14:38:45.478Z,2.10
2017-12-31T14:41:13.042Z,3.43
2017-12-31T14:43:40.571Z,1.53
2017-12-31T14:46:08.111Z,3.10
2017-12-31T14:48:36.427Z,2.77
2017-12-31T14:51:03.991Z,3.20
2017-12-31T14:53:31.543Z,4.03
2017-12-31T14:55:59.126Z,1.90
2017-12-31T14:58:26.669Z,4.33
2017-12-31T15:00:54.217Z,1.57
2017-12-31T15:03:21.808Z,2.53
2017-12-31T15:05:49.340Z,1.80
2017-12-31T15:08:16.909Z,2.67
2017-12-31T15:10:44.485Z,2.87
2017-12-31T15:13:12.035Z,1.63
2017-12-31T15:15:39.564Z,2.53
2017-12-31T15:18:07.915Z,5.10
2017-12-31T15:20:35.467Z,1.80
2017-12-31T15:23:03.026Z,6.43
2017-12-31T15:25:30.595Z,3.00
2017-12-31T15:27:58.183Z,2.33
2017-12-31T15:30:26.479Z,3.67
2017-12-31T15:32:54.057Z,3.23
2017-12-31T15:35:21.591Z,3.37
2017-12-31T15:37:49.123Z,2.30
2017-12-31T15:40:17.448Z,2.60
2017-12-31T15:42:45.006Z,3.83
2017-12-31T15:45:12.542Z,5.70
2017-12-31T15:47:40.122Z,5.70
2017-12-31T15:50:07.678Z,3.53
2017-12-31T15:52:35.234Z,5.63
2017-12-31T15:55:02.797Z,3.67
2017-12-31T15:57:30.421Z,2.13
2017-12-31T15:59:57.974Z,4.13
2017-12-31T16:02:26.272Z,5.13
2017-12-31T16:04:53.847Z,3.10
2017-12-31T16:07:22.148Z,6.93
2017-12-31T16:09:49.717Z,2.70
2017-12-31T16:12:17.247Z,3.00
2017-12-31T16:14:45.616Z,4.33
2017-12-31T16:17:13.934Z,2.93
2017-12-31T16:19:41.499Z,9.97
2017-12-31T16:22:09.083Z,8.47
2017-12-31T16:24:36.615Z,5.97
2017-12-31T16:27:04.171Z,4.40
2017-12-31T16:29:31.741Z,3.77
2017-12-31T16:31:59.291Z,7.60
2017-12-31T16:34:26.851Z,5.40
2017-12-31T16:36:54.446Z,5.23
2017-12-31T16:39:22.073Z,3.40
2017-12-31T16:41:49.641Z,5.10
2017-12-31T16:44:17.196Z,3.17
2017-12-31T16:46:44.742Z,5.40
2017-12-31T16:49:12.302Z,8.80
2017-12-31T16:51:39.883Z,4.70
2017-12-31T16:54:07.474Z,6.00
2017-12-31T16:56:35.028Z,4.17
2017-12-31T16:59:02.607Z,5.93
2017-12-31T17:01:30.160Z,3.20
2017-12-31T17:03:58.459Z,4.57
2017-12-31T17:06:26.025Z,5.80
2017-12-31T17:08:54.319Z,4.50
2017-12-31T17:11:21.870Z,3.37
2017-12-31T17:13:49.437Z,2.63
2017-12-31T17:16:16.994Z,5.17
2017-12-31T17:18:44.531Z,3.37
2017-12-31T17:21:12.864Z,3.93
2017-12-31T17:23:40.400Z,3.10
2017-12-31T17:26:08.574Z,3.80
2017-12-31T17:28:36.188Z,6.43
2017-12-31T17:31:03.807Z,3.20
2017-12-31T17:33:31.361Z,3.33
2017-12-31T17:35:58.915Z,3.47
2017-12-31T17:38:26.634Z,3.43
2017-12-31T17:40:54.268Z,3.53
2017-12-31T17:43:21.833Z,2.70
2017-12-31T17:45:49.387Z,3.20
2017-12-31T17:48:16.982Z,3.90
2017-12-31T17:50:44.515Z,5.50
2017-12-31T17:53:12.076Z,5.30
2017-12-31T17:55:39.642Z,3.90
2017-12-31T17:58:07.218Z,5.83
2017-12-31T18:00:36.267Z,5.57
2017-12-31T18:03:03.883Z,10.00
2017-12-31T18:05:32.222Z,4.80
2017-12-31T18:07:59.762Z,4.33
2017-12-31T18:10:27.351Z,3.30
2017-12-31T18:12:54.893Z,3.30
2017-12-31T18:15:22.783Z,4.13
2017-12-31T18:17:50.321Z,3.40
2017-12-31T18:20:17.943Z,4.83
2017-12-31T18:22:45.471Z,4.20
2017-12-31T18:25:13.040Z,3.70
2017-12-31T18:27:40.590Z,4.30
2017-12-31T18:30:08.165Z,3.80
2017-12-31T18:32:35.792Z,3.50
2017-12-31T18:35:03.361Z,3.87
2017-12-31T18:37:30.938Z,2.50
2017-12-31T18:39:58.497Z,3.90
2017-12-31T18:42:26.387Z,3.33
2017-12-31T18:44:55.457Z,4.00
2017-12-31T18:47:23.883Z,4.83
2017-12-31T18:49:51.808Z,4.63
2017-12-31T18:52:19.347Z,4.23
2017-12-31T18:54:46.903Z,3.80
2017-12-31T18:57:15.301Z,3.93
2017-12-31T18:59:42.875Z,4.77
2017-12-31T19:02:10.427Z,4.83
2017-12-31T19:04:37.975Z,6.43
2017-12-31T19:07:05.536Z,6.33
2017-12-31T19:09:33.095Z,3.60
2017-12-31T19:12:00.711Z,4.20
2017-12-31T19:14:28.235Z,3.43
2017-12-31T19:16:55.796Z,4.63
2017-12-31T19:19:23.350Z,6.60
2017-12-31T19:21:50.898Z,5.20
2017-12-31T19:24:18.456Z,4.80
2017-12-31T19:26:46.019Z,8.60
2017-12-31T19:29:13.773Z,4.70
2017-12-31T19:31:41.948Z,4.20
2017-12-31T19:34:09.920Z,3.90
2017-12-31T19:36:37.537Z,3.57
2017-12-31T19:39:05.306Z,8.00
2017-12-31T19:41:32.886Z,12.10
2017-12-31T19:44:00.884Z,3.63
2017-12-31T19:46:28.542Z,4.10
2017-12-31T19:48:56.086Z,7.80
2017-12-31T19:51:23.679Z,30.27
2017-12-31T19:53:51.564Z,10.90
2017-12-31T19:56:19.112Z,4.60
2017-12-31T19:58:46.694Z,4.10
2017-12-31T20:01:14.235Z,14.90
2017-12-31T20:03:41.797Z,5.57
2017-12-31T20:06:10.050Z,15.13
2017-12-31T20:08:37.623Z,10.70
2017-12-31T20:11:05.152Z,5.73
2017-12-31T20:13:33.038Z,12.20
2017-12-31T20:16:00.698Z,11.40
2017-12-31T20:18:28.670Z,4.93
2017-12-31T20:20:56.325Z,5.30
2017-12-31T20:23:23.899Z,6.13
2017-12-31T20:25:51.485Z,8.40
2017-12-31T20:28:19.069Z,6.20
2017-12-31T20:30:47.367Z,7.27
2017-12-31T20:33:14.900Z,7.53
2017-12-31T20:35:43.182Z,16.27
2017-12-31T20:38:10.789Z,5.20
2017-12-31T20:40:38.340Z,4.63
2017-12-31T20:43:06.861Z,15.30
2017-12-31T20:45:34.389Z,8.53
2017-12-31T20:48:01.964Z,6.13
2017-12-31T20:50:29.517Z,7.57
2017-12-31T20:52:57.104Z,4.43
2017-12-31T20:55:24.683Z,5.33
2017-12-31T20:57:52.707Z,6.90
2017-12-31T21:00:20.283Z,5.50
2017-12-31T21:02:47.841Z,4.47
2017-12-31T21:05:16.087Z,5.73
2017-12-31T21:07:44.382Z,4.70
2017-12-31T21:10:12.470Z,3.43
2017-12-31T21:12:40.544Z,4.13
2017-12-31T21:15:08.114Z,5.80
2017-12-31T21:17:35.659Z,6.20
2017-12-31T21:20:03.274Z,4.07
2017-12-31T21:22:31.595Z,5.63
2017-12-31T21:24:59.940Z,8.63
2017-12-31T21:27:27.518Z,12.07
2017-12-31T21:29:55.191Z,5.73
2017-12-31T21:32:23.535Z,4.50
2017-12-31T21:34:51.136Z,6.63
2017-12-31T21:37:18.682Z,4.53
2017-12-31T21:39:46.230Z,5.23
2017-12-31T21:42:13.798Z,5.33
2017-12-31T21:44:41.320Z,6.80
2017-12-31T21:47:09.640Z,6.33
2017-12-31T21:49:37.188Z,5.80
2017-12-31T21:52:04.785Z,6.67
2017-12-31T21:54:32.349Z,5.67
2017-12-31T21:56:59.903Z,9.93
2017-12-31T21:59:27.556Z,8.43
2017-12-31T22:01:55.218Z,9.00
2017-12-31T22:04:23.606Z,5.10
2017-12-31T22:06:51.182Z,8.37
2017-12-31T22:09:19.356Z,6.60
2017-12-31T22:11:46.908Z,4.20
2017-12-31T22:14:14.756Z,7.17
2017-12-31T22:16:42.301Z,4.63
2017-12-31T22:19:10.623Z,3.67
2017-12-31T22:21:38.202Z,5.70
2017-12-31T22:24:06.703Z,6.97
2017-12-31T22:26:34.450Z,6.33
2017-12-31T22:29:02.048Z,3.83
2017-12-31T22:31:29.676Z,4.67
2017-12-31T22:33:57.864Z,4.07
2017-12-31T22:36:25.688Z,5.67
2017-12-31T22:38:53.304Z,5.80
2017-12-31T22:41:20.828Z,4.30
2017-12-31T22:43:48.916Z,8.07
2017-12-31T22:46:16.629Z,3.77
2017-12-31T22:48:44.227Z,5.83
2017-12-31T22:51:12.108Z,13.30
2017-12-31T22:53:39.907Z,6.70
2017-12-31T22:56:07.718Z,4.30
2017-12-31T22:58:35.286Z,10.63
2017-12-31T23:01:03.720Z,18.07
2017-12-31T23:03:31.268Z,81.83
2017-12-31T23:05:59.002Z,55.00
2017-12-31T23:08:27.343Z,59.00
2017-12-31T23:10:54.934Z,17.37
2017-12-31T23:13:22.506Z,23.03
2017-12-31T23:15:50.139Z,32.40
2017-12-31T23:18:19.111Z,34.87
2017-12-31T23:20:46.670Z,47.90
2017-12-31T23:23:14.972Z,45.80
2017-12-31T23:25:42.635Z,51.90
2017-12-31T23:28:11.367Z,55.37
2017-12-31T23:30:39.906Z,46.87
2017-12-31T23:33:08.867Z,49.20
2017-12-31T23:35:36.746Z,45.97
2017-12-31T23:38:05.710Z,46.67
2017-12-31T23:40:33.299Z,40.60
2017-12-31T23:43:00.901Z,53.13
2017-12-31T23:45:29.850Z,49.00
2017-12-31T23:47:57.409Z,42.03
2017-12-31T23:50:25.589Z,43.07
2017-12-31T23:52:53.619Z,38.17
2017-12-31T23:55:22.070Z,55.77
2017-12-31T23:57:49.622Z,41.83
